Portada
METAR-TAF:

METAR-TAF

Aeroports :

Amman, Jordània

latitud: 31-59N, longitud: 035-59E, altitud: 767 m

Observació

L'informe es va fer fa 47 minuts, a les 19:00 UTC
Vent 4 kt del Oest
Temperatura 30°C
Humitat 18%
Pressió 1018 hPa
Visibilitat: 5000 m
calitja

METAR: OJAM 221900Z 26004KT 5000 HZ NSC 30/03 Q1018 NOSIG

Hora: 22:47 (19:47 UTC)

Pronòstic

L'informe es va fer fa 3 hores i 5 minuts, a les 16:42 UTC
Pronòstic vàlid del 22 a les 18 UTC al 23 a les 24 UTC
Vent 8 kt del Nord-Oest
Visibilitat: 5000 m
calitja
Probabilitat 40% :
Temporalment
l' 23 a les 02 UTC al 23 a les 06 UTC
Vent 1 kt amb direcció variable
Visibilitat: 3000 m
Temporalment
l' 23 a les 10 UTC al 23 a les 18 UTC
Vent 10 kt del Oest amb ràfegues de 20 kt
Visibilitat: 3000 m
torb alta de pols

TAF: OJAM 221642Z 2218/2324 31008KT 5000 HZ NSC PROB40 TEMPO 2302/2306 VRB01KT 3000 TEMPO 2310/2318 28010G20KT 3000 BLDU

Observacions i pronòstics meteorològics de més de 4000 aeroports (METAR i TAF).

Les estacions disponibles són els punts grocs i vermells al mapa.

Posi el ratolí al punt desitjat per veure el nom de l'estació.

Feu clic per veure les observacions i els pronòstics meteorològics.

Per canviar el mapa: feu clic els botons verds amb una creu de color negre per apropar; al botó verd amb un guió per allunyar la imatge; o en les fletxes verdes per a mapes adjacents.


METAR-TAF: